Time;durP1;ratioP1;P1;durP2;ratioP2;P2;SDS_P1;SDS_P2;PMS_P1;PMS_P2;Temp;Humidity;BMP_temperature;BMP_pressure;BME280_temperature;BME280_humidity;BME280_pressure;Samples;Min_cycle;Max_cycle;Signal;HPM_P1;HPM_P2
2022/10/15 00:02:07;;;;;;;1.17;0.20;;;16.00;99.90;;;;;;5094949;28;20028;-77
2022/10/15 00:04:33;;;;;;;0.75;0.25;;;16.00;99.90;;;;;;5097827;28;20020;-74
2022/10/15 00:06:59;;;;;;;1.75;0.10;;;16.00;99.90;;;;;;5091030;28;20016;-73
2022/10/15 00:09:24;;;;;;;1.10;0.20;;;16.00;99.90;;;;;;5096349;28;20456;-74
2022/10/15 00:11:50;;;;;;;1.00;0.10;;;16.00;99.90;;;;;;5099914;28;20051;-74
2022/10/15 00:14:17;;;;;;;0.77;0.20;;;16.00;99.90;;;;;;5097746;28;20471;-74
2022/10/15 00:16:42;;;;;;;0.30;0.10;;;16.00;99.90;;;;;;5100024;28;20027;-74
2022/10/15 00:19:08;;;;;;;0.70;0.20;;;16.10;99.90;;;;;;5097197;28;20115;-76
2022/10/15 00:21:34;;;;;;;1.15;0.10;;;16.10;99.90;;;;;;5112932;28;20016;-74
2022/10/15 00:24:00;;;;;;;0.40;0.20;;;16.00;99.90;;;;;;5096079;28;20484;-75
2022/10/15 00:26:28;;;;;;;0.65;0.10;;;16.10;99.90;;;;;;5097380;28;20055;-74
2022/10/15 00:28:59;;;;;;;4.78;0.20;;;16.00;99.90;;;;;;5094534;28;20487;-74
2022/10/15 00:31:27;;;;;;;1.50;0.20;;;16.00;99.90;;;;;;5097546;28;20030;-74
2022/10/15 00:33:54;;;;;;;1.13;0.10;;;16.10;99.90;;;;;;5094552;28;20043;-74
2022/10/15 00:36:26;;;;;;;0.30;0.10;;;16.10;99.90;;;;;;5098768;28;20459;-75
2022/10/15 00:38:52;;;;;;;0.90;0.20;;;16.10;99.90;;;;;;5093675;28;20032;-76
2022/10/15 00:41:24;;;;;;;0.20;0.10;;;16.10;99.90;;;;;;5097040;28;20051;-74
2022/10/15 00:43:53;;;;;;;0.10;0.10;;;16.10;99.90;;;;;;5108593;28;20020;-74
2022/10/15 00:46:32;;;;;;;3.80;0.30;;;16.00;99.90;;;;;;5097560;28;20520;-75
2022/10/15 00:49:20;;;;;;;0.40;0.10;;;16.10;99.90;;;;;;5097230;28;20058;-75
2022/10/15 00:51:51;;;;;;;0.70;0.52;;;16.10;99.90;;;;;;5097186;28;20016;-75
2022/10/15 00:54:19;;;;;;;0.57;0.10;;;16.10;99.90;;;;;;5094014;28;20028;-75
2022/10/15 00:56:45;;;;;;;0.35;0.17;;;16.10;99.90;;;;;;5097419;28;20040;-74
2022/10/15 00:59:13;;;;;;;0.10;0.10;;;16.10;99.90;;;;;;5097269;28;20027;-73
2022/10/15 01:01:38;;;;;;;0.85;0.20;;;16.10;99.90;;;;;;5097505;28;20015;-74
2022/10/15 01:04:06;;;;;;;0.30;0.10;;;16.10;99.90;;;;;;5097509;28;20467;-75
2022/10/15 01:06:31;;;;;;;0.25;0.10;;;16.20;99.90;;;;;;5097018;28;20076;-75
2022/10/15 01:08:58;;;;;;;0.43;0.20;;;16.10;99.90;;;;;;5097479;28;20432;-73
2022/10/15 01:11:27;;;;;;;0.10;0.10;;;16.10;99.90;;;;;;5115100;28;20015;-74
2022/10/15 01:14:09;;;;;;;0.13;0.10;;;16.10;99.90;;;;;;5077005;28;20028;-74
2022/10/15 01:16:41;;;;;;;0.15;0.00;;;16.10;99.90;;;;;;5077107;28;20031;-74
2022/10/15 01:19:32;;;;;;;1.20;0.10;;;16.10;99.90;;;;;;5077020;28;20059;-74
2022/10/15 01:22:06;;;;;;;0.55;0.20;;;16.20;99.90;;;;;;5078286;28;20027;-74
2022/10/15 01:24:34;;;;;;;0.17;0.10;;;16.20;99.90;;;;;;5083726;28;20024;-74
2022/10/15 01:27:14;;;;;;;0.20;0.20;;;16.20;99.90;;;;;;5115396;28;20019;-73
2022/10/15 01:29:46;;;;;;;1.42;0.10;;;16.20;99.90;;;;;;5097238;28;20042;-74
2022/10/15 01:32:30;;;;;;;;;;;16.20;99.90;;;;;;5096884;28;20019;-74
2022/10/15 01:35:45;;;;;;;0.30;0.10;;;16.20;99.90;;;;;;5096917;28;19923;-74
2022/10/15 01:38:53;;;;;;;1.13;0.10;;;16.20;99.90;;;;;;5011952;28;20499;-76
2022/10/15 01:41:50;;;;;;;0.22;0.10;;;16.20;99.90;;;;;;5096083;28;20030;-73
2022/10/15 01:44:22;;;;;;;1.00;0.10;;;16.20;99.90;;;;;;5096178;28;20015;-73
2022/10/15 01:47:00;;;;;;;0.93;0.10;;;16.20;99.90;;;;;;5096614;28;20030;-73
2022/10/15 01:49:30;;;;;;;0.70;0.10;;;16.20;99.90;;;;;;5096133;28;20031;-74
2022/10/15 01:51:59;;;;;;;0.25;0.00;;;16.30;99.90;;;;;;5096542;28;20045;-74
2022/10/15 01:54:26;;;;;;;0.17;0.10;;;16.30;99.90;;;;;;5095872;28;20028;-74
2022/10/15 01:56:54;;;;;;;1.20;0.05;;;16.30;99.90;;;;;;5114386;28;20036;-74
2022/10/15 01:59:28;;;;;;;1.45;0.10;;;16.30;99.90;;;;;;5095817;28;20380;-74
2022/10/15 02:01:54;;;;;;;0.10;0.10;;;16.30;99.90;;;;;;5096480;28;20388;-74
2022/10/15 02:04:23;;;;;;;1.15;0.10;;;16.30;99.90;;;;;;5095089;28;20054;-74
2022/10/15 02:06:56;;;;;;;0.22;0.10;;;16.30;99.90;;;;;;5096555;28;20027;-74
2022/10/15 02:09:51;;;;;;;1.42;0.10;;;16.30;99.90;;;;;;5095790;28;20030;-74
2022/10/15 02:12:42;;;;;;;1.60;0.10;;;16.30;99.90;;;;;;5113933;28;20028;-74
2022/10/15 02:15:14;;;;;;;2.05;0.20;;;16.30;99.90;;;;;;5114371;28;20016;-74
2022/10/15 02:17:52;;;;;;;0.08;0.08;;;16.30;99.90;;;;;;5114512;28;20092;-74
2022/10/15 02:20:27;;;;;;;0.10;0.10;;;16.40;99.90;;;;;;5113391;28;20093;-74
2022/10/15 02:23:01;;;;;;;0.10;0.10;;;16.40;99.90;;;;;;5096117;28;20051;-74
2022/10/15 02:25:27;;;;;;;1.90;0.10;;;16.40;99.90;;;;;;5094863;28;20047;-74
2022/10/15 02:27:55;;;;;;;0.00;0.00;;;16.40;99.90;;;;;;5095793;28;20023;-74
2022/10/15 02:30:21;;;;;;;0.43;0.10;;;16.40;99.90;;;;;;5113553;28;20027;-74
2022/10/15 02:32:52;;;;;;;0.38;0.10;;;16.40;99.90;;;;;;5113686;28;20072;-74
2022/10/15 02:35:19;;;;;;;0.28;0.00;;;16.40;99.90;;;;;;5095374;28;20451;-74
2022/10/15 02:37:49;;;;;;;0.32;0.08;;;16.40;99.90;;;;;;5095717;28;20024;-74
2022/10/15 02:40:15;;;;;;;0.15;0.15;;;16.40;99.90;;;;;;5093000;28;20479;-78
2022/10/15 02:42:40;;;;;;;0.40;0.10;;;16.40;99.90;;;;;;5102255;28;20028;-74
2022/10/15 02:45:07;;;;;;;0.10;0.10;;;16.40;99.90;;;;;;5075277;28;20031;-74
2022/10/15 02:47:32;;;;;;;0.47;0.10;;;16.40;99.90;;;;;;5074763;28;20093;-74
2022/10/15 02:49:58;;;;;;;0.77;0.20;;;16.40;99.90;;;;;;5075244;28;20453;-74
2022/10/15 02:52:24;;;;;;;0.40;0.10;;;16.50;99.90;;;;;;5092692;28;20506;-73
2022/10/15 02:54:49;;;;;;;0.20;0.10;;;16.50;99.90;;;;;;5093459;28;20024;-73
2022/10/15 02:57:15;;;;;;;0.13;0.10;;;16.50;99.90;;;;;;5075003;28;20020;-77
2022/10/15 02:59:41;;;;;;;1.88;0.13;;;16.50;99.90;;;;;;5093113;28;20024;-73
2022/10/15 03:02:07;;;;;;;0.57;0.10;;;16.50;99.90;;;;;;5083292;28;20027;-73
2022/10/15 03:04:32;;;;;;;0.25;0.20;;;16.50;99.90;;;;;;5112937;28;20020;-73
2022/10/15 03:06:58;;;;;;;2.50;0.10;;;16.50;99.90;;;;;;5095212;28;20019;-73
2022/10/15 03:09:23;;;;;;;1.35;0.20;;;16.50;99.90;;;;;;5094800;28;20027;-74
2022/10/15 03:11:49;;;;;;;0.75;0.10;;;16.50;99.90;;;;;;5095207;28;20500;-74
2022/10/15 03:14:14;;;;;;;0.73;0.20;;;16.50;99.90;;;;;;5095213;28;20020;-73
2022/10/15 03:16:40;;;;;;;2.55;0.00;;;16.50;99.90;;;;;;5094684;28;20026;-75
2022/10/15 03:19:05;;;;;;;0.20;0.10;;;16.50;99.90;;;;;;5094983;28;20019;-74
2022/10/15 03:21:31;;;;;;;0.50;0.20;;;16.50;99.90;;;;;;5094670;28;20110;-74
2022/10/15 03:23:57;;;;;;;0.45;0.10;;;16.50;99.90;;;;;;5095144;28;20077;-73
2022/10/15 03:26:23;;;;;;;1.75;0.13;;;16.50;99.90;;;;;;5094051;28;20047;-74
2022/10/15 03:28:49;;;;;;;1.85;0.10;;;16.50;99.90;;;;;;5095225;28;20020;-73
2022/10/15 03:31:15;;;;;;;0.50;0.40;;;16.50;99.90;;;;;;5113179;28;20040;-73
2022/10/15 03:33:40;;;;;;;0.40;0.20;;;16.50;99.90;;;;;;5112620;28;20053;-73
2022/10/15 03:36:06;;;;;;;0.55;0.22;;;16.50;99.90;;;;;;5094847;28;20020;-73
2022/10/15 03:38:32;;;;;;;1.95;0.22;;;16.50;99.90;;;;;;5094503;28;20395;-74
2022/10/15 03:40:58;;;;;;;2.70;0.40;;;16.50;99.90;;;;;;5094889;28;20031;-74
2022/10/15 03:43:24;;;;;;;2.05;0.20;;;16.50;99.90;;;;;;5094426;28;20028;-74
2022/10/15 03:45:50;;;;;;;0.32;0.30;;;16.50;99.90;;;;;;5113428;28;20024;-74
2022/10/15 03:48:16;;;;;;;0.65;0.10;;;16.60;99.90;;;;;;5112849;28;20042;-74
2022/10/15 03:50:41;;;;;;;0.75;0.13;;;16.60;99.90;;;;;;5094408;28;20024;-74
2022/10/15 03:53:07;;;;;;;1.52;0.20;;;16.60;99.90;;;;;;5094813;28;20102;-74
2022/10/15 03:55:33;;;;;;;1.00;0.20;;;16.60;99.90;;;;;;5112678;28;20115;-74
2022/10/15 03:57:58;;;;;;;1.63;0.20;;;16.60;99.90;;;;;;5094776;28;20024;-75
2022/10/15 04:00:24;;;;;;;0.60;0.30;;;16.60;99.90;;;;;;5112393;28;20426;-74
2022/10/15 04:02:50;;;;;;;0.50;0.20;;;16.50;99.90;;;;;;5094680;28;20030;-74
2022/10/15 04:05:15;;;;;;;0.50;0.20;;;16.60;99.90;;;;;;5112887;28;20027;-74
2022/10/15 04:07:41;;;;;;;1.20;0.20;;;16.50;99.90;;;;;;5094211;28;20016;-74
2022/10/15 04:10:07;;;;;;;0.20;0.20;;;16.50;99.90;;;;;;5112855;28;20110;-74
2022/10/15 04:12:33;;;;;;;2.40;0.20;;;16.50;99.90;;;;;;5094184;28;20020;-75
2022/10/15 04:14:59;;;;;;;0.52;0.10;;;16.50;99.90;;;;;;5094651;28;20019;-75
2022/10/15 04:17:24;;;;;;;0.52;0.30;;;16.60;99.90;;;;;;5094135;28;20448;-75
2022/10/15 04:19:50;;;;;;;1.08;0.20;;;16.50;99.90;;;;;;5094296;28;20118;-74
2022/10/15 04:22:16;;;;;;;0.40;0.20;;;16.50;99.90;;;;;;5113002;28;20030;-73
2022/10/15 04:24:41;;;;;;;0.28;0.17;;;16.50;99.90;;;;;;5093559;28;20375;-73
2022/10/15 04:27:07;;;;;;;1.85;0.20;;;16.50;99.90;;;;;;5095267;28;20456;-73
2022/10/15 04:29:32;;;;;;;0.52;0.20;;;16.50;99.90;;;;;;5097320;28;20023;-73
2022/10/15 04:31:58;;;;;;;1.85;0.10;;;16.50;99.90;;;;;;5116278;28;20022;-74
2022/10/15 04:34:24;;;;;;;4.28;0.20;;;16.50;99.90;;;;;;5097420;28;20020;-74
2022/10/15 04:36:49;;;;;;;1.50;0.17;;;16.50;99.90;;;;;;5097914;28;20069;-73
2022/10/15 04:39:15;;;;;;;1.30;0.20;;;16.50;99.90;;;;;;5097804;28;20539;-73
2022/10/15 04:41:41;;;;;;;2.25;0.20;;;16.50;99.90;;;;;;5097366;28;20192;-73
2022/10/15 04:44:06;;;;;;;0.30;0.20;;;16.50;99.90;;;;;;5097842;28;20115;-73
2022/10/15 04:46:32;;;;;;;1.98;0.30;;;16.50;99.90;;;;;;5097223;28;20030;-73
2022/10/15 04:48:58;;;;;;;1.13;0.40;;;16.50;99.90;;;;;;5097792;28;20022;-73
2022/10/15 04:51:25;;;;;;;0.15;0.15;;;16.50;99.90;;;;;;5097130;28;20020;-74
2022/10/15 04:53:51;;;;;;;0.98;0.30;;;16.50;99.90;;;;;;5097511;28;20024;-75
2022/10/15 04:56:19;;;;;;;1.10;0.20;;;16.50;99.90;;;;;;5097501;28;20403;-74
2022/10/15 04:58:45;;;;;;;0.55;0.55;;;16.50;99.90;;;;;;5097013;28;20020;-73
2022/10/15 05:01:14;;;;;;;0.40;0.30;;;16.50;99.90;;;;;;5097373;28;20035;-73
2022/10/15 05:03:42;;;;;;;0.40;0.20;;;16.50;99.90;;;;;;5096588;28;20027;-73
2022/10/15 05:06:14;;;;;;;1.48;0.30;;;16.50;99.90;;;;;;5097486;28;20376;-73
2022/10/15 05:08:43;;;;;;;;;;;16.50;99.90;;;;;;5115514;28;20020;-73
2022/10/15 05:11:16;;;;;;;0.80;0.30;;;16.50;99.90;;;;;;5097367;28;20255;-74
2022/10/15 05:13:42;;;;;;;0.30;0.20;;;16.50;99.90;;;;;;5096829;28;20055;-73
2022/10/15 05:16:19;;;;;;;0.10;0.10;;;16.40;99.90;;;;;;5115276;28;20477;-73
2022/10/15 05:18:47;;;;;;;0.93;0.30;;;16.50;99.90;;;;;;5096601;28;20069;-73
2022/10/15 05:21:13;;;;;;;0.40;0.30;;;16.50;99.90;;;;;;5097103;28;20118;-73
2022/10/15 05:23:39;;;;;;;1.80;0.38;;;16.40;99.90;;;;;;5114842;28;20041;-73
2022/10/15 05:26:07;;;;;;;0.77;0.32;;;16.40;99.90;;;;;;5096709;28;20456;-73
2022/10/15 05:28:33;;;;;;;0.55;0.25;;;16.50;99.90;;;;;;5114450;28;20465;-73
2022/10/15 05:31:04;;;;;;;0.95;0.30;;;16.40;99.90;;;;;;5096920;28;20023;-73
2022/10/15 05:33:30;;;;;;;0.77;0.23;;;16.40;99.90;;;;;;5096327;28;20039;-74
2022/10/15 05:35:55;;;;;;;1.52;0.40;;;16.40;99.90;;;;;;5097024;28;20262;-73
2022/10/15 05:38:21;;;;;;;1.77;0.38;;;16.40;99.90;;;;;;5114131;28;20023;-74
2022/10/15 05:40:48;;;;;;;0.47;0.20;;;16.40;99.90;;;;;;5095595;28;20019;-74
2022/10/15 05:43:13;;;;;;;0.50;0.40;;;16.40;99.90;;;;;;5096724;28;20015;-74
2022/10/15 05:45:39;;;;;;;0.85;0.47;;;16.40;99.90;;;;;;5096077;28;20131;-74
2022/10/15 05:48:06;;;;;;;1.77;0.30;;;16.40;99.90;;;;;;5114574;28;20165;-74
2022/10/15 05:50:31;;;;;;;0.98;0.30;;;16.40;99.90;;;;;;5096082;28;20034;-74
2022/10/15 05:52:57;;;;;;;0.93;0.30;;;16.40;99.90;;;;;;5096511;28;20019;-74
2022/10/15 05:55:22;;;;;;;0.32;0.25;;;16.30;99.90;;;;;;5114704;28;20032;-74
2022/10/15 05:57:48;;;;;;;1.98;0.40;;;16.40;99.90;;;;;;5095856;28;20028;-74
2022/10/15 06:00:14;;;;;;;1.00;0.30;;;16.30;99.90;;;;;;5096404;28;20420;-74
2022/10/15 06:02:40;;;;;;;1.35;0.30;;;16.30;99.90;;;;;;5095851;28;20028;-74
2022/10/15 06:05:05;;;;;;;1.30;0.50;;;16.30;99.90;;;;;;5096375;28;20387;-74
2022/10/15 06:07:31;;;;;;;2.03;0.43;;;16.30;99.90;;;;;;5095469;28;20043;-74
2022/10/15 06:09:57;;;;;;;0.32;0.30;;;16.30;99.90;;;;;;5096173;28;20024;-75
2022/10/15 06:12:22;;;;;;;0.77;0.52;;;16.30;99.90;;;;;;5096333;28;20031;-74
2022/10/15 06:14:48;;;;;;;0.77;0.40;;;16.30;99.90;;;;;;5095607;28;20110;-74
2022/10/15 06:17:13;;;;;;;0.98;0.55;;;16.30;99.90;;;;;;5096316;28;20080;-73
2022/10/15 06:19:39;;;;;;;1.50;0.85;;;16.30;99.90;;;;;;5095485;28;20063;-74
2022/10/15 06:22:04;;;;;;;1.30;0.50;;;16.30;99.90;;;;;;5095972;28;20509;-73
2022/10/15 06:24:30;;;;;;;1.15;0.40;;;16.30;99.90;;;;;;5095102;28;20031;-74
2022/10/15 06:26:58;;;;;;;2.17;0.52;;;16.30;99.90;;;;;;5095923;28;20111;-74
2022/10/15 06:29:24;;;;;;;0.47;0.40;;;16.30;99.90;;;;;;5095670;28;20023;-74
2022/10/15 06:31:50;;;;;;;0.93;0.50;;;16.30;99.90;;;;;;5095245;28;20023;-74
2022/10/15 06:34:15;;;;;;;3.25;0.50;;;16.30;99.90;;;;;;5095747;28;20028;-74
2022/10/15 06:36:41;;;;;;;2.17;0.40;;;16.30;99.90;;;;;;5095282;28;20428;-74
2022/10/15 06:39:06;;;;;;;1.38;0.50;;;16.30;99.90;;;;;;5095603;28;20027;-74
2022/10/15 06:41:32;;;;;;;0.68;0.40;;;16.30;99.90;;;;;;5095335;28;20160;-74
2022/10/15 06:43:57;;;;;;;0.73;0.40;;;16.30;99.90;;;;;;5095763;28;20152;-73
2022/10/15 06:46:23;;;;;;;0.80;0.50;;;16.30;99.90;;;;;;5095635;28;20019;-73
2022/10/15 06:48:50;;;;;;;0.60;0.50;;;16.30;99.90;;;;;;5113218;28;20375;-75
2022/10/15 06:51:16;;;;;;;0.88;0.70;;;16.40;99.90;;;;;;5113534;28;20026;-75
2022/10/15 06:53:42;;;;;;;1.25;0.60;;;16.40;99.90;;;;;;5094999;28;20015;-75
2022/10/15 06:56:08;;;;;;;1.52;0.63;;;16.40;99.90;;;;;;5095650;28;20032;-75
2022/10/15 06:58:34;;;;;;;1.38;0.60;;;16.40;99.90;;;;;;5112929;28;20018;-75
2022/10/15 07:01:05;;;;;;;0.80;0.50;;;16.40;99.90;;;;;;5095661;28;20059;-75
2022/10/15 07:03:31;;;;;;;1.55;0.60;;;16.40;99.90;;;;;;5095091;28;20356;-75
2022/10/15 07:06:02;;;;;;;1.38;0.43;;;16.40;99.90;;;;;;5095282;28;20026;-75
2022/10/15 07:08:28;;;;;;;0.85;0.60;;;16.40;99.90;;;;;;5095375;28;20120;-75
2022/10/15 07:10:53;;;;;;;1.45;0.70;;;16.40;99.90;;;;;;5094783;28;20110;-74
2022/10/15 07:13:19;;;;;;;2.50;1.40;;;16.40;99.90;;;;;;5095298;28;20020;-74
2022/10/15 07:15:46;;;;;;;2.22;0.70;;;16.40;99.90;;;;;;5094709;28;20360;-74
2022/10/15 07:18:11;;;;;;;1.63;0.50;;;16.40;99.90;;;;;;5095066;28;20115;-74
2022/10/15 07:20:37;;;;;;;4.97;0.80;;;16.40;99.90;;;;;;5094686;28;20110;-74
2022/10/15 07:23:02;;;;;;;2.45;0.50;;;16.40;99.90;;;;;;5113331;28;20418;-74
2022/10/15 07:25:28;;;;;;;1.83;0.40;;;16.40;99.90;;;;;;5091009;28;20042;-73
2022/10/15 07:27:55;;;;;;;0.98;0.52;;;16.50;99.90;;;;;;5088147;28;20024;-74
2022/10/15 07:30:22;;;;;;;1.55;0.50;;;16.50;99.90;;;;;;5095007;28;20027;-74
2022/10/15 07:32:47;;;;;;;2.45;0.45;;;16.40;99.90;;;;;;5112823;28;20424;-75
2022/10/15 07:35:13;;;;;;;5.78;0.65;;;16.40;99.90;;;;;;5113171;28;20023;-74
2022/10/15 07:37:39;;;;;;;1.20;0.57;;;16.50;99.90;;;;;;5109844;28;20028;-75
2022/10/15 07:40:05;;;;;;;0.93;0.65;;;16.50;99.90;;;;;;5102850;28;20035;-74
2022/10/15 07:42:30;;;;;;;1.58;0.50;;;16.50;99.90;;;;;;5092303;28;20034;-74
2022/10/15 07:44:56;;;;;;;0.88;0.38;;;16.50;99.90;;;;;;5094037;28;20444;-73
2022/10/15 07:47:22;;;;;;;3.45;0.57;;;16.50;99.90;;;;;;5094588;28;20089;-74
2022/10/15 07:49:47;;;;;;;0.95;0.40;;;16.50;99.90;;;;;;5093898;28;20024;-74
2022/10/15 07:52:13;;;;;;;1.60;0.60;;;16.50;99.90;;;;;;5094376;28;20020;-74
2022/10/15 07:54:38;;;;;;;2.28;0.40;;;16.50;99.90;;;;;;5093869;28;20020;-75
2022/10/15 07:57:05;;;;;;;2.22;0.73;;;16.60;99.90;;;;;;5112586;28;20333;-75
2022/10/15 07:59:32;;;;;;;1.65;0.50;;;16.50;99.90;;;;;;5112013;28;20349;-76
2022/10/15 08:01:57;;;;;;;1.63;0.73;;;16.50;99.90;;;;;;5093327;28;20107;-75
2022/10/15 08:04:23;;;;;;;3.85;0.90;;;16.60;99.90;;;;;;5115456;28;20139;-75
2022/10/15 08:06:48;;;;;;;1.17;0.50;;;16.60;99.90;;;;;;5097007;28;20017;-75
2022/10/15 08:09:14;;;;;;;1.48;0.60;;;16.60;99.90;;;;;;5097236;28;20507;-75
2022/10/15 08:11:40;;;;;;;0.45;0.40;;;16.60;99.90;;;;;;5111962;28;20038;-74
2022/10/15 08:14:06;;;;;;;1.20;0.50;;;16.60;99.90;;;;;;5097630;28;20460;-74
2022/10/15 08:16:31;;;;;;;0.50;0.40;;;16.60;99.90;;;;;;5097900;28;20178;-74
2022/10/15 08:18:58;;;;;;;2.40;0.38;;;16.60;99.90;;;;;;5097235;28;20032;-74
2022/10/15 08:21:23;;;;;;;0.75;0.47;;;16.70;99.90;;;;;;5097729;28;20036;-74
2022/10/15 08:23:50;;;;;;;2.88;0.50;;;16.70;99.90;;;;;;5097429;28;20031;-74
2022/10/15 08:26:15;;;;;;;1.05;0.82;;;16.70;99.90;;;;;;5097522;28;20051;-74
2022/10/15 08:28:41;;;;;;;1.77;0.70;;;16.70;99.90;;;;;;5097390;28;20016;-74
2022/10/15 08:31:06;;;;;;;7.50;3.90;;;16.80;99.90;;;;;;5116146;28;20493;-74
2022/10/15 08:33:33;;;;;;;0.98;0.88;;;16.70;99.90;;;;;;5097787;28;20468;-74
2022/10/15 08:35:59;;;;;;;1.70;0.60;;;16.70;99.90;;;;;;5096698;28;20049;-74
2022/10/15 08:38:25;;;;;;;0.50;0.40;;;16.70;99.90;;;;;;5097516;28;20019;-74
2022/10/15 08:40:59;;;;;;;0.55;0.40;;;16.70;99.90;;;;;;5096350;28;20035;-74
2022/10/15 08:43:37;;;;;;;1.10;0.55;;;16.70;99.90;;;;;;5115779;28;20089;-74
2022/10/15 08:46:08;;;;;;;2.00;0.38;;;16.80;99.90;;;;;;5111299;28;20229;-74
2022/10/15 08:48:41;;;;;;;0.50;0.20;;;16.80;99.90;;;;;;5097507;28;20028;-74
2022/10/15 08:51:22;;;;;;;1.08;0.75;;;16.80;99.90;;;;;;5115981;28;20035;-75
2022/10/15 08:53:56;;;;;;;0.95;0.30;;;16.80;99.90;;;;;;5096997;28;20380;-75
2022/10/15 08:56:38;;;;;;;0.85;0.40;;;16.80;99.90;;;;;;5097566;28;20487;-75
2022/10/15 08:59:21;;;;;;;0.55;0.32;;;16.80;99.90;;;;;;5097236;28;20031;-73
2022/10/15 09:01:56;;;;;;;0.70;0.35;;;16.80;99.90;;;;;;5099312;28;20050;-75
2022/10/15 09:04:25;;;;;;;2.10;0.50;;;16.90;99.90;;;;;;5097106;28;20034;-74
2022/10/15 09:07:20;;;;;;;0.52;0.20;;;17.00;99.90;;;;;;5096067;28;20467;-72
2022/10/15 09:10:11;;;;;;;2.25;0.40;;;17.00;99.90;;;;;;5076422;28;20123;-79
2022/10/15 09:12:48;;;;;;;1.20;0.30;;;17.00;99.90;;;;;;5082077;28;20042;-77
2022/10/15 09:15:17;;;;;;;1.58;0.20;;;17.10;99.90;;;;;;5096878;28;20035;-76
2022/10/15 09:17:46;;;;;;;1.17;0.20;;;17.10;99.90;;;;;;5095757;28;20106;-74
2022/10/15 09:20:32;;;;;;;2.20;0.20;;;17.10;99.90;;;;;;5079378;28;20036;-73
2022/10/15 09:22:58;;;;;;;2.38;0.50;;;17.10;99.90;;;;;;5105121;28;20247;-74
2022/10/15 09:25:36;;;;;;;2.15;0.22;;;17.10;99.90;;;;;;5087646;28;20484;-76
2022/10/15 09:28:10;;;;;;;0.52;0.20;;;17.30;99.90;;;;;;5095597;28;20070;-76
2022/10/15 09:30:48;;;;;;;0.70;0.40;;;17.30;99.90;;;;;;5113471;28;20054;-76
2022/10/15 09:33:34;;;;;;;1.23;0.80;;;17.40;99.90;;;;;;5086982;28;20032;-76
2022/10/15 09:36:15;;;;;;;3.25;0.68;;;17.50;99.90;;;;;;5094454;28;20036;-76
2022/10/15 09:38:57;;;;;;;2.53;0.70;;;17.60;99.90;;;;;;5095331;28;20055;-77
2022/10/15 09:41:52;;;;;;;1.38;0.50;;;17.60;99.90;;;;;;5095312;28;20040;-76
2022/10/15 09:44:20;;;;;;;2.70;1.10;;;17.70;99.90;;;;;;5044820;28;20035;-76
2022/10/15 09:46:48;;;;;;;1.30;0.77;;;17.80;99.90;;;;;;5095159;28;20016;-76
2022/10/15 09:49:24;;;;;;;1.25;0.60;;;17.90;99.90;;;;;;5095619;28;20023;-73
2022/10/15 09:51:53;;;;;;;1.23;0.30;;;17.80;99.90;;;;;;5094909;28;20403;-74
2022/10/15 09:54:54;;;;;;;2.78;0.30;;;17.80;99.90;;;;;;5088517;28;20384;-74
2022/10/15 09:57:22;;;;;;;0.98;0.30;;;17.90;99.90;;;;;;5087571;28;20027;-73
2022/10/15 09:59:57;;;;;;;1.40;0.30;;;17.90;99.90;;;;;;5094574;28;20032;-74
2022/10/15 10:02:24;;;;;;;3.80;0.77;;;17.90;99.90;;;;;;5095453;28;20026;-74
2022/10/15 10:04:51;;;;;;;0.90;0.40;;;18.00;99.90;;;;;;5094485;28;20027;-76
2022/10/15 10:07:32;;;;;;;1.58;0.40;;;18.00;99.90;;;;;;5091124;28;20073;-76
2022/10/15 10:10:01;;;;;;;1.38;0.55;;;18.10;99.90;;;;;;5109582;28;20027;-76
2022/10/15 10:12:31;;;;;;;0.75;0.40;;;18.10;99.90;;;;;;5075496;28;20039;-76
2022/10/15 10:14:58;;;;;;;1.27;0.32;;;18.20;99.90;;;;;;5083563;28;20023;-77
2022/10/15 10:17:26;;;;;;;3.22;0.40;;;18.20;99.90;;;;;;5083772;28;20028;-77
2022/10/15 10:20:16;;;;;;;0.47;0.40;;;18.20;99.90;;;;;;5092178;28;20039;-78
2022/10/15 10:22:51;;;;;;;0.68;0.25;;;18.20;99.90;;;;;;5087508;28;20098;-78
2022/10/15 10:25:39;;;;;;;2.67;0.50;;;18.30;99.90;;;;;;5091481;28;20052;-77
2022/10/15 10:28:08;;;;;;;1.88;0.47;;;18.30;99.90;;;;;;5092410;28;20136;-78
2022/10/15 10:30:37;;;;;;;2.60;0.30;;;18.20;99.90;;;;;;5092488;28;20032;-78
2022/10/15 10:33:04;;;;;;;0.85;0.35;;;18.30;99.90;;;;;;5093086;28;20035;-77
2022/10/15 10:35:49;;;;;;;2.60;0.38;;;18.40;99.90;;;;;;5092730;28;20019;-77
2022/10/15 10:38:29;;;;;;;2.25;0.50;;;18.40;99.90;;;;;;5094265;28;20034;-77
2022/10/15 10:41:04;;;;;;;3.20;0.35;;;18.30;99.90;;;;;;5093058;28;20027;-78
2022/10/15 10:43:30;;;;;;;0.63;0.38;;;18.30;99.90;;;;;;5092646;28;20077;-77
2022/10/15 10:45:55;;;;;;;2.53;0.45;;;18.20;99.90;;;;;;5091967;28;20020;-77
2022/10/15 10:48:25;;;;;;;1.40;0.30;;;18.20;99.90;;;;;;5092333;28;20020;-77
2022/10/15 10:51:03;;;;;;;3.75;0.40;;;18.20;99.90;;;;;;5091499;28;20031;-77
2022/10/15 10:53:29;;;;;;;3.38;0.40;;;18.20;99.90;;;;;;5092423;28;20032;-77
2022/10/15 10:55:56;;;;;;;3.38;0.40;;;18.30;99.90;;;;;;5091598;28;20028;-78
2022/10/15 10:58:23;;;;;;;1.15;0.30;;;18.40;99.90;;;;;;5092394;28;20032;-78
2022/10/15 11:00:51;;;;;;;1.27;0.50;;;18.50;99.90;;;;;;5091791;28;20107;-77
2022/10/15 11:03:20;;;;;;;2.47;0.50;;;18.50;99.90;;;;;;5092290;28;20027;-78
2022/10/15 11:05:47;;;;;;;2.25;0.45;;;18.50;99.90;;;;;;5091522;28;20020;-77
2022/10/15 11:08:23;;;;;;;4.72;0.43;;;18.50;99.90;;;;;;5092136;28;20385;-77
2022/10/15 11:10:54;;;;;;;4.22;0.68;;;18.40;99.90;;;;;;5091635;28;20024;-77
2022/10/15 11:13:47;;;;;;;1.45;0.45;;;18.30;99.90;;;;;;5092359;28;20043;-77
2022/10/15 11:16:33;;;;;;;2.95;0.40;;;18.40;99.90;;;;;;5092012;28;20096;-77
2022/10/15 11:19:22;;;;;;;1.70;0.50;;;18.40;99.90;;;;;;5091688;28;20465;-77
2022/10/15 11:22:03;;;;;;;4.45;0.50;;;18.50;99.90;;;;;;5091609;28;20029;-77
2022/10/15 11:24:39;;;;;;;2.67;0.60;;;18.50;99.90;;;;;;5092081;28;20028;-77
2022/10/15 11:27:23;;;;;;;4.78;0.50;;;18.60;99.90;;;;;;5112923;28;20027;-77
2022/10/15 11:29:55;;;;;;;3.15;0.47;;;18.60;99.90;;;;;;5094892;28;20097;-77
2022/10/15 11:32:39;;;;;;;;;;;18.60;99.90;;;;;;5113801;28;20030;-78
2022/10/15 11:35:22;;;;;;;1.58;0.52;;;18.50;99.90;;;;;;5094659;28;19904;-77
2022/10/15 11:38:06;;;;;;;1.13;0.40;;;18.50;99.90;;;;;;5096686;28;20113;-77
2022/10/15 11:40:35;;;;;;;1.45;0.60;;;18.60;99.90;;;;;;5117733;28;20122;-78
2022/10/15 11:43:16;;;;;;;3.00;0.50;;;18.50;99.90;;;;;;5098776;28;20028;-77
2022/10/15 11:45:54;;;;;;;5.28;0.50;;;18.60;99.90;;;;;;5099511;28;20031;-78
2022/10/15 11:48:50;;;;;;;2.58;0.50;;;18.60;99.90;;;;;;5099397;28;20028;-78
2022/10/15 11:51:33;;;;;;;3.85;0.52;;;18.60;99.90;;;;;;5099149;28;20472;-78
2022/10/15 11:54:22;;;;;;;1.42;0.47;;;18.60;99.90;;;;;;5098622;28;20384;-77
2022/10/15 11:56:52;;;;;;;1.10;0.52;;;18.50;99.90;;;;;;5073732;28;20489;-78
2022/10/15 11:59:23;;;;;;;0.95;0.40;;;18.50;99.90;;;;;;5074249;28;20073;-78
2022/10/15 12:01:56;;;;;;;3.83;0.43;;;18.50;99.90;;;;;;5073657;28;20481;-78
2022/10/15 12:04:44;;;;;;;2.63;0.50;;;18.40;99.90;;;;;;5074341;28;20032;-78
2022/10/15 12:07:20;;;;;;;1.17;0.70;;;18.40;99.90;;;;;;5074471;28;20040;-78
2022/10/15 12:09:51;;;;;;;0.52;0.40;;;18.40;99.90;;;;;;5073730;28;20513;-78
2022/10/15 12:12:36;;;;;;;3.07;0.90;;;18.40;99.90;;;;;;5074003;28;20037;-77
2022/10/15 12:15:10;;;;;;;1.48;0.70;;;18.40;99.90;;;;;;5073421;28;20048;-78
2022/10/15 12:17:47;;;;;;;0.85;0.60;;;18.40;99.90;;;;;;5074189;28;20394;-78
2022/10/15 12:20:18;;;;;;;2.85;0.47;;;18.40;99.90;;;;;;5073892;28;20489;-77
2022/10/15 12:22:46;;;;;;;0.82;0.50;;;18.30;99.90;;;;;;5073895;28;20056;-77
2022/10/15 12:25:33;;;;;;;1.85;0.30;;;18.30;99.90;;;;;;5073447;28;20053;-78
2022/10/15 12:28:03;;;;;;;5.53;0.40;;;18.30;99.90;;;;;;5088873;28;20431;-78
2022/10/15 12:30:35;;;;;;;0.50;0.50;;;18.20;99.90;;;;;;5098436;28;20027;-77
2022/10/15 12:33:23;;;;;;;1.75;0.52;;;18.20;99.90;;;;;;5116281;28;20380;-77
2022/10/15 12:36:01;;;;;;;1.25;0.32;;;18.10;99.90;;;;;;5098118;28;20024;-77
2022/10/15 12:38:31;;;;;;;0.30;0.30;;;18.00;99.90;;;;;;5098507;28;20118;-78
2022/10/15 12:41:00;;;;;;;0.70;0.38;;;18.00;99.90;;;;;;5097834;28;20031;-78
2022/10/15 12:43:26;;;;;;;4.65;0.40;;;17.90;99.90;;;;;;5116362;28;20469;-77
2022/10/15 12:45:56;;;;;;;0.52;0.40;;;17.90;99.90;;;;;;5097017;28;20031;-78
2022/10/15 12:48:32;;;;;;;2.70;0.32;;;17.90;99.90;;;;;;5115932;28;20051;-77
2022/10/15 12:51:20;;;;;;;0.68;0.40;;;18.00;99.90;;;;;;5097742;28;20442;-77
2022/10/15 12:53:50;;;;;;;1.30;0.20;;;18.20;99.90;;;;;;5097831;28;20019;-78
2022/10/15 12:56:16;;;;;;;3.85;0.40;;;18.20;99.90;;;;;;5097975;28;20181;-77
2022/10/15 12:58:43;;;;;;;1.80;0.40;;;18.30;99.90;;;;;;5097948;28;20129;-77
2022/10/15 13:01:14;;;;;;;1.10;0.50;;;18.20;99.90;;;;;;5097112;28;20100;-77
2022/10/15 13:03:49;;;;;;;0.20;0.20;;;18.10;99.90;;;;;;5097773;28;20034;-77
2022/10/15 13:06:21;;;;;;;0.68;0.40;;;18.00;99.90;;;;;;5116139;28;20031;-77